Flight Track Log - Related Links

Times and Time Zones

All times are in EDT time to prevent confusion due to time zone crossing. See the USC392 flight status page for this flight to view local times or setup timezone preferences in your user account.

Time Position Orientation Groundspeed Altitude Reporting Facility
EDT Latitude Longitude Course Direction KTS MPH feet Rate Location/Type
Tue 08:59:43 PM 33.5617 -86.7586 57° Northeast 90 104 1,000  Level Atlanta Center
Tue 09:00:32 PM 33.5747 -86.7342 57° Northeast 101 116 1,900 1,096 Climbing Atlanta Center
Tue 09:01:38 PM 33.5983 -86.7050 46° Northeast 113 130 3,100 1,087 Climbing Atlanta Center
Tue 09:02:39 PM 33.6197 -86.6806 44° Northeast 103 119 4,200 1,033 Climbing Atlanta Center
Tue 09:03:40 PM 33.6392 -86.6536 49° Northeast 109 125 5,200 992 Climbing Atlanta Center
Tue 09:04:40 PM 33.6606 -86.6269 46° Northeast 107 123 6,200 942 Climbing Atlanta Center
Tue 09:05:41 PM 33.6781 -86.5925 59° Northeast 120 138 7,100 893 Climbing Atlanta Center
Tue 09:06:41 PM 33.6892 -86.5578 69° East 118 136 8,000 843 Climbing Atlanta Center
Tue 09:07:42 PM 33.7025 -86.5258 63° Northeast 116 133 8,800 443 Climbing Atlanta Center
Tue 09:08:43 PM 33.7200 -86.4839 63° Northeast 144 166 8,900 54 Climbing Atlanta Center
Tue 09:09:33 PM 33.7375 -86.4394 65° Northeast 163 188 8,900  Level Atlanta Center
Tue 09:10:33 PM 33.7592 -86.3900 62° Northeast 182 209 8,900  Level Atlanta Center
Tue 09:11:33 PM 33.7811 -86.3406 62° Northeast 177 204 8,900  Level Atlanta Center
Tue 09:12:33 PM 33.8008 -86.2911 64° Northeast 170 196 8,900  Level Atlanta Center
Tue 09:13:33 PM 33.8164 -86.2392 70° East 170 196 8,900  Level Atlanta Center
Tue 09:14:33 PM 33.8381 -86.1897 62° Northeast 170 196 8,900  Level Atlanta Center
Tue 09:15:33 PM 33.8556 -86.1400 67° East 170 196 8,900  Level Atlanta Center
Tue 09:16:33 PM 33.8731 -86.0906 67° East 165 190 8,900  Level Atlanta Center
Tue 09:17:33 PM 33.8928 -86.0408 64° Northeast 165 190 8,900  Level Atlanta Center
Tue 09:18:33 PM 33.9103 -85.9861 69° East 160 184 8,900  Level Atlanta Center
Tue 09:19:33 PM 33.9256 -85.9414 68° East 160 184 8,900  Level Atlanta Center
Tue 09:20:33 PM 33.9431 -85.8917 67° East 155 178 8,900  Level Atlanta Center
Tue 09:21:33 PM 33.9625 -85.8447 63° Northeast 155 178 8,900 -50 Level Atlanta Center
Tue 09:22:33 PM 33.9781 -85.7897 71° East 155 178 8,800 -50 Descending Atlanta Center
Tue 09:23:33 PM 33.9747 -85.7322 94° East 150 173 8,800  Level Atlanta Center
Tue 09:24:33 PM 33.9733 -85.6769 92° East 156 180 8,800 -100 Level Atlanta Center
Tue 09:25:33 PM 33.9742 -85.6194 89° East 161 185 8,600 -300 Descending Atlanta Center
Tue 09:26:33 PM 33.9706 -85.5617 94° East 161 185 8,200 -400 Descending Atlanta Center
Tue 09:27:33 PM 33.9714 -85.5017 89° East 166 191 7,800 -400 Descending Atlanta Center
Tue 09:28:33 PM 33.9700 -85.4414 92° East 171 197 7,400 -400 Descending Atlanta Center
Tue 09:29:33 PM 33.9728 -85.3814 87° East 171 197 7,000 -400 Descending Atlanta Center
Tue 09:30:33 PM 33.9711 -85.3289 92° East 176 203 6,600 -400 Descending Atlanta Center
Tue 09:31:33 PM 33.9697 -85.2686 92° East 176 203 6,200 -400 Descending Atlanta Center
Tue 09:32:33 PM 33.9725 -85.2061 87° East 182 209 5,800 -400 Descending Atlanta Center
Tue 09:33:33 PM 33.9708 -85.1458 92° East 177 204 5,400 -350 Descending Atlanta Center
Tue 09:34:33 PM 33.9694 -85.0858 92° East 177 204 5,100 -300 Descending Atlanta Center
Tue 09:35:33 PM 33.9614 -85.0256 99° East 177 204 4,800 -100 Descending Atlanta Center
Tue 09:36:33 PM 33.9578 -84.9656 94° East 177 204 4,900 50 Climbing Atlanta Center
Tue 09:37:33 PM 33.9500 -84.9003 98° East 177 204 4,900  Level Atlanta Center
Tue 09:38:33 PM 33.9439 -84.8450 98° East 177 204 4,900  Level Atlanta Center
Tue 09:40:42 PM 33.9333 -84.7167 96° East 176 203 4,900 -222 Level Atlanta TRACON
Tue 09:41:42 PM 33.9333 -84.6500 90° East 193 222 4,200 -600 Descending Atlanta TRACON
Tue 09:42:42 PM 33.9167 -84.5833 107° East 190 219 3,700 -450 Descending Atlanta TRACON
Tue 09:43:42 PM 33.9167 -84.5167 90° East 189 217 3,300 -248 Descending Atlanta TRACON
Tue 09:44:43 PM 33.9167 -84.4667 90° East 183 211 3,200 -248 Descending Atlanta TRACON
Tue 09:45:43 PM 33.9000 -84.4000 107° East 190 219 2,800 -381 Descending Atlanta TRACON
Tue 09:46:49 PM 33.9000 -84.3333 90° East 195 224 2,400 -524 Descending Atlanta TRACON
Tue 09:47:49 PM 33.8833 -84.2833 112° Southeast 177 204 1,700 -700 Descending Atlanta TRACON
Tue 09:49:00 PM 33.8667 -84.3000 90° East  Level FlightAware Approximate
Tue 09:56:00 PM 33.8756 -84.3020 90° East  Level Estimated
Tue 09:57:00 PM 33.8756 -84.3020 90° East  Level Estimated
Tue 09:58:00 PM 33.8756 -84.3020 90° East  Level Estimated
Tue 09:59:00 PM 33.8756 -84.3020 90° East  Level Estimated

Login

Don't have an account? Register now (free) for customized features, flight alerts, and more!